createdAt,value
2023-05-08T00:02:05.379Z,96562.34
2023-05-08T00:04:38.196Z,96558.88
2023-05-08T00:07:11.101Z,96561.56
2023-05-08T00:09:44.065Z,96554.63
2023-05-08T00:12:16.849Z,96550.00
2023-05-08T00:14:51.312Z,96556.16
2023-05-08T00:17:24.011Z,96559.66
2023-05-08T00:19:56.980Z,96558.88
2023-05-08T00:22:29.760Z,96559.28
2023-05-08T00:25:03.455Z,96555.03
2023-05-08T00:27:36.163Z,96559.66
2023-05-08T00:30:11.959Z,96561.22
2023-05-08T00:32:44.994Z,96553.13
2023-05-08T00:35:17.745Z,96561.22
2023-05-08T00:37:50.861Z,96563.91
2023-05-08T00:40:23.658Z,96565.47
2023-05-08T00:42:56.285Z,96566.63
2023-05-08T00:45:33.851Z,96556.94
2023-05-08T00:48:06.913Z,96560.44
2023-05-08T00:50:39.677Z,96560.44
2023-05-08T00:53:13.319Z,96561.22
2023-05-08T00:55:46.673Z,96549.22
2023-05-08T00:58:19.827Z,96563.84
2023-05-08T01:00:55.571Z,96557.66
2023-05-08T01:03:29.319Z,96557.25
2023-05-08T01:06:02.941Z,96552.22
2023-05-08T01:08:35.978Z,96562.25
2023-05-08T01:11:12.930Z,96562.97
2023-05-08T01:13:52.560Z,96550.59
2023-05-08T01:16:30.637Z,96557.88
2023-05-08T01:19:08.544Z,96558.25
2023-05-08T01:21:44.334Z,96551.63
2023-05-08T01:24:37.678Z,96553.13
2023-05-08T01:27:29.714Z,96556.22
2023-05-08T01:30:32.440Z,96554.66
2023-05-08T01:33:09.404Z,96552.69
2023-05-08T01:35:44.417Z,96554.94
2023-05-08T01:38:20.843Z,96550.31
2023-05-08T01:40:55.691Z,96549.53
2023-05-08T01:43:32.388Z,96557.66
2023-05-08T01:46:07.750Z,96546.84
2023-05-08T01:48:45.722Z,96550.69
2023-05-08T01:51:19.853Z,96556.09
2023-05-08T01:53:57.059Z,96557.25
2023-05-08T01:56:30.829Z,96561.09
2023-05-08T01:59:03.777Z,96561.09
2023-05-08T02:01:36.989Z,96558.75
2023-05-08T02:04:11.926Z,96563.00
2023-05-08T02:06:45.050Z,96557.97
2023-05-08T02:09:17.796Z,96564.16
2023-05-08T02:11:50.937Z,96566.06
2023-05-08T02:14:23.858Z,96565.28
2023-05-08T02:16:57.095Z,96564.94
2023-05-08T02:19:32.410Z,96569.53
2023-05-08T02:22:05.242Z,96572.25
2023-05-08T02:24:38.986Z,96568.41
2023-05-08T02:27:12.499Z,96575.00
2023-05-08T02:29:45.763Z,96568.44
2023-05-08T02:32:19.364Z,96571.94
2023-05-08T02:35:02.374Z,96575.41
2023-05-08T02:37:36.171Z,96572.34
2023-05-08T02:40:11.395Z,96574.69
2023-05-08T02:42:44.532Z,96568.53
2023-05-08T02:45:17.439Z,96570.50
2023-05-08T02:47:54.248Z,96566.25
2023-05-08T02:50:35.206Z,96569.34
2023-05-08T02:53:10.766Z,96569.34
2023-05-08T02:55:47.991Z,96577.44
2023-05-08T02:58:23.462Z,96570.13
2023-05-08T03:00:57.952Z,96567.41
2023-05-08T03:03:34.183Z,96570.91
2023-05-08T03:06:11.354Z,96568.94
2023-05-08T03:08:44.360Z,96565.47
2023-05-08T03:11:19.280Z,96566.25
2023-05-08T03:13:52.967Z,96560.06
2023-05-08T03:16:26.568Z,96564.69
2023-05-08T03:19:01.120Z,96567.75
2023-05-08T03:21:37.490Z,96573.13
2023-05-08T03:24:11.089Z,96564.25
2023-05-08T03:26:44.141Z,96563.06
2023-05-08T03:29:17.946Z,96564.97
2023-05-08T03:31:52.397Z,96564.56
2023-05-08T03:34:25.657Z,96566.09
2023-05-08T03:37:00.068Z,96572.69
2023-05-08T03:39:33.072Z,96567.28
2023-05-08T03:42:06.130Z,96570.34
2023-05-08T03:44:39.076Z,96568.75
2023-05-08T03:47:12.048Z,96573.38
2023-05-08T03:49:46.562Z,96566.44
2023-05-08T03:52:21.158Z,96569.91
2023-05-08T03:54:53.892Z,96573.38
2023-05-08T03:57:29.525Z,96572.59
2023-05-08T04:00:04.853Z,96572.59
2023-05-08T04:02:42.133Z,96574.94
2023-05-08T04:05:19.980Z,96572.25
2023-05-08T04:07:55.011Z,96576.88
2023-05-08T04:10:30.896Z,96578.44
2023-05-08T04:13:06.985Z,96584.97
2023-05-08T04:15:40.880Z,96585.75
2023-05-08T04:18:15.987Z,96584.97
2023-05-08T04:20:49.275Z,96583.84
2023-05-08T04:23:24.334Z,96587.31
2023-05-08T04:25:58.012Z,96590.78
2023-05-08T04:28:31.458Z,96593.09
2023-05-08T04:31:05.029Z,96591.97
2023-05-08T04:33:38.001Z,96583.50
2023-05-08T04:36:12.617Z,96599.72
2023-05-08T04:38:46.762Z,96593.53
2023-05-08T04:41:19.809Z,96590.47
2023-05-08T04:43:52.508Z,96594.31
2023-05-08T04:46:25.763Z,96590.47
2023-05-08T04:48:58.568Z,96599.78
2023-05-08T04:51:32.009Z,96594.75
2023-05-08T04:54:06.369Z,96599.38
2023-05-08T04:56:39.047Z,96585.84
2023-05-08T04:59:12.500Z,96587.44
2023-05-08T05:01:46.939Z,96599.38
2023-05-08T05:04:19.810Z,96595.88
2023-05-08T05:06:52.421Z,96598.59
2023-05-08T05:09:26.457Z,96600.16
2023-05-08T05:11:59.238Z,96602.50
2023-05-08T05:14:32.045Z,96596.72
2023-05-08T05:17:04.808Z,96604.44
2023-05-08T05:19:37.697Z,96602.97
2023-05-08T05:22:10.422Z,96604.53
2023-05-08T05:24:44.882Z,96608.78
2023-05-08T05:27:19.924Z,96608.81
2023-05-08T05:29:53.839Z,96614.66
2023-05-08T05:32:26.733Z,96611.66
2023-05-08T05:34:59.446Z,96620.94
2023-05-08T05:37:32.178Z,96618.31
2023-05-08T05:40:07.762Z,96613.72
2023-05-08T05:42:40.583Z,96611.44
2023-05-08T05:45:13.547Z,96616.91
2023-05-08T05:47:50.054Z,96622.34
2023-05-08T05:50:23.559Z,96618.59
2023-05-08T05:52:56.241Z,96617.88
2023-05-08T05:55:30.470Z,96620.97
2023-05-08T05:58:03.257Z,96623.38
2023-05-08T06:00:36.002Z,96622.63
2023-05-08T06:03:09.200Z,96625.81
2023-05-08T06:05:42.076Z,96617.72
2023-05-08T06:08:16.543Z,96622.06
2023-05-08T06:10:51.833Z,96615.53
2023-05-08T06:13:24.646Z,96612.13
2023-05-08T06:15:57.674Z,96621.50
2023-05-08T06:18:30.442Z,96619.28
2023-05-08T06:21:03.202Z,96621.28
2023-05-08T06:23:36.698Z,96622.09
2023-05-08T06:26:10.860Z,96619.09
2023-05-08T06:28:43.542Z,96628.44
2023-05-08T06:31:16.355Z,96625.00
2023-05-08T06:33:49.024Z,96628.16
2023-05-08T06:36:22.033Z,96627.00
2023-05-08T06:38:54.879Z,96626.66
2023-05-08T06:41:29.135Z,96623.59
2023-05-08T06:44:01.881Z,96627.91
2023-05-08T06:46:34.560Z,96628.69
2023-05-08T06:49:07.281Z,96632.56
2023-05-08T06:51:39.884Z,96632.63
2023-05-08T06:54:12.918Z,96640.38
2023-05-08T06:56:47.172Z,96638.06
2023-05-08T06:59:19.961Z,96642.75
2023-05-08T07:01:52.722Z,96646.66
2023-05-08T07:04:25.660Z,96637.38
2023-05-08T07:06:58.554Z,96640.09
2023-05-08T07:09:31.314Z,96637.03
2023-05-08T07:12:05.794Z,96640.56
2023-05-08T07:14:38.525Z,96639.03
2023-05-08T07:17:11.150Z,96645.66
2023-05-08T07:19:43.873Z,96643.00
2023-05-08T07:22:16.605Z,96649.25
2023-05-08T07:24:49.423Z,96647.34
2023-05-08T07:27:23.491Z,96637.69
2023-05-08T07:29:57.520Z,96642.38
2023-05-08T07:32:31.153Z,96650.19
2023-05-08T07:35:07.196Z,96649.41
2023-05-08T07:37:41.562Z,96652.97
2023-05-08T07:40:14.307Z,96650.25
2023-05-08T07:42:48.366Z,96654.94
2023-05-08T07:45:21.201Z,96650.31
2023-05-08T07:47:54.624Z,96646.47
2023-05-08T07:50:27.386Z,96653.50
2023-05-08T07:53:00.476Z,96653.91
2023-05-08T07:55:33.255Z,96651.56
2023-05-08T07:58:08.285Z,96657.41
2023-05-08T08:00:41.402Z,96661.69
2023-05-08T08:03:14.318Z,96657.03
2023-05-08T08:05:47.111Z,96655.09
2023-05-08T08:08:20.178Z,96649.31
2023-05-08T08:10:52.913Z,96651.66
2023-05-08T08:13:27.185Z,96651.25
2023-05-08T08:16:00.239Z,96655.94
2023-05-08T08:18:35.770Z,96653.66
2023-05-08T08:21:08.727Z,96655.63
2023-05-08T08:23:41.408Z,96651.03
2023-05-08T08:26:14.156Z,96649.94
2023-05-08T08:28:48.235Z,96649.19
2023-05-08T08:31:21.156Z,96654.00
2023-05-08T08:33:54.001Z,96652.13
2023-05-08T08:36:26.709Z,96648.38
2023-05-08T08:39:00.114Z,96648.47
2023-05-08T08:41:33.678Z,96643.91
2023-05-08T08:44:08.327Z,96640.88
2023-05-08T08:46:45.321Z,96642.06
2023-05-08T08:49:19.465Z,96639.78
2023-05-08T08:51:53.817Z,96647.97
2023-05-08T08:54:29.273Z,96647.59
2023-05-08T08:57:02.495Z,96641.81
2023-05-08T08:59:39.218Z,96639.47
2023-05-08T09:02:15.110Z,96641.00
2023-05-08T09:04:50.628Z,96642.91
2023-05-08T09:07:24.270Z,96639.78
2023-05-08T09:09:57.075Z,96644.00
2023-05-08T09:12:29.800Z,96642.44
2023-05-08T09:15:03.859Z,96638.09
2023-05-08T09:17:36.571Z,96641.94
2023-05-08T09:20:10.155Z,96629.38
2023-05-08T09:22:43.802Z,96633.59
2023-05-08T09:25:16.621Z,96636.25
2023-05-08T09:27:49.506Z,96638.09
2023-05-08T09:30:23.779Z,96641.47
2023-05-08T09:33:03.226Z,96643.25
2023-05-08T09:35:36.950Z,96639.94
2023-05-08T09:38:09.593Z,96638.22
2023-05-08T09:40:42.294Z,96645.09
2023-05-08T09:43:15.071Z,96646.97
2023-05-08T09:45:49.174Z,96645.69
2023-05-08T09:48:37.762Z,96640.13
2023-05-08T09:51:11.065Z,96641.63
2023-05-08T09:53:44.120Z,96643.03
2023-05-08T09:56:16.837Z,96641.72
2023-05-08T09:58:49.567Z,96644.63
2023-05-08T10:01:30.766Z,96647.53
2023-05-08T10:04:06.018Z,96650.06
2023-05-08T10:06:39.027Z,96653.41
2023-05-08T10:09:12.403Z,96641.59
2023-05-08T10:11:52.021Z,96648.56
2023-05-08T10:14:24.906Z,96639.56
2023-05-08T10:17:01.025Z,96648.59
2023-05-08T10:19:34.250Z,96645.56
2023-05-08T10:22:08.872Z,96646.88
2023-05-08T10:24:42.342Z,96636.44
2023-05-08T10:27:18.750Z,96633.81
2023-05-08T10:29:53.839Z,96631.94
2023-05-08T10:32:29.796Z,96625.00
2023-05-08T10:35:04.567Z,96625.78
2023-05-08T10:37:37.969Z,96620.25
2023-05-08T10:40:11.613Z,96616.28
2023-05-08T10:42:45.074Z,96614.56
2023-05-08T10:45:17.967Z,96607.41
2023-05-08T10:47:58.688Z,96610.38
2023-05-08T10:50:45.622Z,96610.25
2023-05-08T10:53:20.184Z,96608.94
2023-05-08T10:55:53.271Z,96604.53
2023-05-08T10:58:33.228Z,96604.44
2023-05-08T11:01:13.488Z,96595.34
2023-05-08T11:03:51.108Z,96599.44
2023-05-08T11:06:54.000Z,96598.47
2023-05-08T11:09:29.084Z,96595.44
2023-05-08T11:12:08.391Z,96590.91
2023-05-08T11:14:43.695Z,96590.72
2023-05-08T11:17:24.178Z,96587.31
2023-05-08T11:19:59.527Z,96584.38
2023-05-08T11:22:32.989Z,96586.91
2023-05-08T11:25:07.336Z,96591.38
2023-05-08T11:27:41.295Z,96579.41
2023-05-08T11:30:23.983Z,96571.81
2023-05-08T11:32:57.169Z,96563.50
2023-05-08T11:35:44.951Z,96576.34
2023-05-08T11:38:18.414Z,96570.09
2023-05-08T11:41:01.126Z,96579.09
2023-05-08T11:43:52.137Z,96578.75
2023-05-08T11:46:38.990Z,96568.63
2023-05-08T11:49:15.547Z,96567.88
2023-05-08T11:51:50.552Z,96575.34
2023-05-08T11:54:24.965Z,96562.03
2023-05-08T11:56:59.601Z,96562.03
2023-05-08T11:59:36.105Z,96569.06
2023-05-08T12:02:09.778Z,96558.09
2023-05-08T12:04:47.135Z,96562.38
2023-05-08T12:07:23.385Z,96557.56
2023-05-08T12:09:56.592Z,96559.38
2023-05-08T12:12:38.968Z,96565.13
2023-05-08T12:15:15.699Z,96564.63
2023-05-08T12:17:48.592Z,96564.88
2023-05-08T12:20:23.579Z,96566.34
2023-05-08T12:22:59.181Z,96567.88
2023-05-08T12:25:31.996Z,96569.09
2023-05-08T12:28:08.395Z,96569.56
2023-05-08T12:30:41.117Z,96571.72
2023-05-08T12:33:17.297Z,96566.06
2023-05-08T12:35:50.537Z,96563.59
2023-05-08T12:38:27.726Z,96560.28
2023-05-08T12:41:04.494Z,96561.69
2023-05-08T12:43:37.655Z,96559.28
2023-05-08T12:46:12.759Z,96560.69
2023-05-08T12:48:47.880Z,96563.31
2023-05-08T12:51:20.701Z,96559.63
2023-05-08T12:53:54.699Z,96559.84
2023-05-08T12:56:27.585Z,96552.19
2023-05-08T12:59:00.710Z,96557.03
2023-05-08T13:01:33.611Z,96555.97
2023-05-08T13:04:08.267Z,96560.00
2023-05-08T13:06:41.133Z,96568.25
2023-05-08T13:09:20.337Z,96566.78
2023-05-08T13:11:53.171Z,96558.63
2023-05-08T13:14:25.942Z,96558.34
2023-05-08T13:16:59.865Z,96564.69
2023-05-08T13:19:32.722Z,96560.22
2023-05-08T13:22:05.561Z,96551.56
2023-05-08T13:24:39.661Z,96550.00
2023-05-08T13:27:13.631Z,96556.25
2023-05-08T13:29:46.254Z,96553.19
2023-05-08T13:32:19.066Z,96549.28
2023-05-08T13:34:54.109Z,96551.94
2023-05-08T13:37:31.312Z,96542.88
2023-05-08T13:40:06.312Z,96545.78
2023-05-08T13:42:39.088Z,96553.38
2023-05-08T13:45:14.493Z,96561.69
2023-05-08T13:47:47.812Z,96575.06
2023-05-08T13:50:21.844Z,96587.63
2023-05-08T13:52:55.098Z,96588.47
2023-05-08T13:55:29.462Z,96598.66
2023-05-08T13:58:02.851Z,96600.63
2023-05-08T14:00:36.388Z,96599.41
2023-05-08T14:03:09.514Z,96591.56
2023-05-08T14:05:42.302Z,96594.88
2023-05-08T14:08:15.356Z,96594.28
2023-05-08T14:10:51.280Z,96586.31
2023-05-08T14:13:24.367Z,96586.41
2023-05-08T14:15:57.641Z,96581.44
2023-05-08T14:18:30.452Z,96583.84
2023-05-08T14:21:04.677Z,96593.25
2023-05-08T14:23:39.972Z,96589.88
2023-05-08T14:26:16.560Z,96592.69
2023-05-08T14:28:49.682Z,96598.25
2023-05-08T14:31:22.717Z,96600.81
2023-05-08T14:33:55.878Z,96603.41
2023-05-08T14:36:28.811Z,96607.97
2023-05-08T14:39:05.413Z,96609.06
2023-05-08T14:41:40.611Z,96605.59
2023-05-08T14:44:13.793Z,96600.59
2023-05-08T14:46:46.814Z,96604.91
2023-05-08T14:49:32.737Z,96606.53
2023-05-08T14:52:11.169Z,96607.41
2023-05-08T14:54:44.375Z,96607.50
2023-05-08T14:57:18.718Z,96601.84
2023-05-08T14:59:55.320Z,96611.59
2023-05-08T15:02:46.181Z,96606.38
2023-05-08T15:05:20.494Z,96599.56
2023-05-08T15:07:55.672Z,96602.78
2023-05-08T15:10:33.578Z,96591.69
2023-05-08T15:13:09.410Z,96593.75
2023-05-08T15:15:42.500Z,96590.03
2023-05-08T15:18:15.926Z,96585.50
2023-05-08T15:20:48.992Z,96584.81
2023-05-08T15:23:22.794Z,96591.13
2023-05-08T15:25:56.696Z,96580.81
2023-05-08T15:28:33.306Z,96580.13
2023-05-08T15:31:07.234Z,96579.81
2023-05-08T15:33:45.759Z,96577.56
2023-05-08T15:36:18.619Z,96584.59
2023-05-08T15:38:52.026Z,96583.13
2023-05-08T15:41:24.849Z,96578.53
2023-05-08T15:44:00.510Z,96579.00
2023-05-08T15:46:39.446Z,96579.81
2023-05-08T15:49:12.839Z,96581.38
2023-05-08T15:51:49.395Z,96580.25
2023-05-08T15:54:22.910Z,96584.13
2023-05-08T15:56:56.632Z,96591.13
2023-05-08T15:59:33.469Z,96587.28
2023-05-08T16:04:53.642Z,96582.63
2023-05-08T16:07:26.540Z,96576.84
2023-05-08T16:09:59.410Z,96575.31
2023-05-08T16:12:32.388Z,96578.41
2023-05-08T16:15:07.383Z,96586.16
2023-05-08T16:17:40.439Z,96579.19
2023-05-08T16:20:13.650Z,96574.53
2023-05-08T16:22:47.142Z,96594.66
2023-05-08T16:25:20.039Z,96585.00
2023-05-08T16:27:53.194Z,96592.72
2023-05-08T16:30:27.996Z,96599.69
2023-05-08T16:33:00.851Z,96610.47
2023-05-08T16:35:34.556Z,96608.53
2023-05-08T16:38:07.596Z,96610.09
2023-05-08T16:40:42.301Z,96607.75
2023-05-08T16:43:15.448Z,96608.53
2023-05-08T16:45:52.480Z,96603.09
2023-05-08T16:48:25.667Z,96608.16
2023-05-08T16:50:58.462Z,96608.94
2023-05-08T16:53:32.981Z,96615.53
2023-05-08T16:56:05.856Z,96613.25
2023-05-08T16:58:39.089Z,96612.09
2023-05-08T17:01:14.230Z,96621.00
2023-05-08T17:03:47.220Z,96613.63
2023-05-08T17:06:20.727Z,96614.34
2023-05-08T17:08:53.814Z,96610.47
2023-05-08T17:11:26.540Z,96617.78
2023-05-08T17:13:59.587Z,96621.25
2023-05-08T17:16:34.252Z,96621.22
2023-05-08T17:19:07.107Z,96623.91
2023-05-08T17:21:40.023Z,96624.28
2023-05-08T17:24:13.076Z,96621.19
2023-05-08T17:26:45.793Z,96619.97
2023-05-08T17:29:18.716Z,96621.91
2023-05-08T17:31:53.058Z,96628.47
2023-05-08T17:34:26.490Z,96630.41
2023-05-08T17:36:59.493Z,96625.41
2023-05-08T17:39:32.231Z,96629.25
2023-05-08T17:42:05.107Z,96630.03
2023-05-08T17:44:37.896Z,96635.81
2023-05-08T17:47:12.048Z,96631.56
2023-05-08T17:49:44.735Z,96632.69
2023-05-08T17:52:17.850Z,96630.38
2023-05-08T17:54:51.758Z,96637.72
2023-05-08T17:57:24.987Z,96631.13
2023-05-08T17:59:58.191Z,96633.44
2023-05-08T18:02:32.963Z,96624.09
2023-05-08T18:05:06.085Z,96629.91
2023-05-08T18:07:38.836Z,96627.97
2023-05-08T18:10:12.222Z,96621.34
2023-05-08T18:12:45.260Z,96627.50
2023-05-08T18:15:18.028Z,96626.72
2023-05-08T18:17:54.125Z,96638.28
2023-05-08T18:20:27.032Z,96643.69
2023-05-08T18:23:00.143Z,96639.00
2023-05-08T18:25:33.325Z,96639.34
2023-05-08T18:28:06.449Z,96639.31
2023-05-08T18:30:40.316Z,96645.81
2023-05-08T18:33:14.460Z,96649.28
2023-05-08T18:35:52.340Z,96650.75
2023-05-08T18:38:25.058Z,96655.34
2023-05-08T18:40:58.177Z,96656.44
2023-05-08T18:43:31.498Z,96656.03
2023-05-08T18:46:09.144Z,96650.16
2023-05-08T18:48:43.338Z,96647.44
2023-05-08T18:51:16.198Z,96659.75
2023-05-08T18:53:48.854Z,96650.84
2023-05-08T18:56:22.288Z,96656.97
2023-05-08T18:58:55.033Z,96656.16
2023-05-08T19:01:27.882Z,96659.25
2023-05-08T19:04:02.851Z,96654.91
2023-05-08T19:06:35.801Z,96662.63
2023-05-08T19:09:09.062Z,96657.97
2023-05-08T19:11:42.089Z,96661.03
2023-05-08T19:14:14.928Z,96656.72
2023-05-08T19:16:47.923Z,96661.72
2023-05-08T19:19:22.092Z,96662.09
2023-05-08T19:21:56.684Z,96666.31
2023-05-08T19:24:30.986Z,96660.88
2023-05-08T19:27:04.364Z,96663.19
2023-05-08T19:29:37.598Z,96658.13
2023-05-08T19:32:10.384Z,96664.72
2023-05-08T19:34:44.719Z,96662.38
2023-05-08T19:37:17.536Z,96663.50
2023-05-08T19:39:50.497Z,96663.88
2023-05-08T19:42:23.465Z,96663.09
2023-05-08T19:44:56.406Z,96669.63
2023-05-08T19:47:29.327Z,96664.22
2023-05-08T19:50:04.001Z,96662.66
2023-05-08T19:52:36.735Z,96656.47
2023-05-08T19:55:09.982Z,96661.50
2023-05-08T19:57:42.956Z,96661.06
2023-05-08T20:00:16.104Z,96668.41
2023-05-08T20:02:48.976Z,96666.84
2023-05-08T20:05:23.567Z,96670.25
2023-05-08T20:07:56.473Z,96662.53
2023-05-08T20:10:29.266Z,96660.56
2023-05-08T20:13:02.379Z,96660.13
2023-05-08T20:15:35.243Z,96657.78
2023-05-08T20:18:08.077Z,96658.53
2023-05-08T20:20:42.403Z,96657.31
2023-05-08T20:23:15.846Z,96660.38
2023-05-08T20:25:48.602Z,96657.25
2023-05-08T20:28:25.567Z,96658.78
2023-05-08T20:30:58.654Z,96664.91
2023-05-08T20:33:31.433Z,96656.00
2023-05-08T20:36:05.721Z,96664.13
2023-05-08T20:38:38.755Z,96663.31
2023-05-08T20:41:11.903Z,96662.53
2023-05-08T20:43:45.366Z,96662.88
2023-05-08T20:46:18.656Z,96659.75
2023-05-08T20:48:52.243Z,96657.03
2023-05-08T20:51:26.917Z,96655.84
2023-05-08T20:53:59.832Z,96648.13
2023-05-08T20:56:32.841Z,96642.28
2023-05-08T20:59:06.107Z,96637.25
2023-05-08T21:01:39.574Z,96636.03
2023-05-08T21:04:12.299Z,96646.84
2023-05-08T21:06:46.427Z,96642.19
2023-05-08T21:09:19.532Z,96633.66
2023-05-08T21:11:52.435Z,96630.53
2023-05-08T21:14:25.368Z,96644.41
2023-05-08T21:16:58.209Z,96643.63
2023-05-08T21:19:31.718Z,96638.97
2023-05-08T21:22:08.017Z,96635.84
2023-05-08T21:24:44.021Z,96635.84
2023-05-08T21:27:17.096Z,96636.53
2023-05-08T21:29:50.143Z,96642.31
2023-05-08T21:32:22.858Z,96634.59
2023-05-08T21:34:56.272Z,96641.47
2023-05-08T21:37:31.786Z,96636.44
2023-05-08T21:40:05.516Z,96630.25
2023-05-08T21:42:38.164Z,96629.47
2023-05-08T21:45:11.591Z,96630.25
2023-05-08T21:47:44.392Z,96625.22
2023-05-08T21:50:17.201Z,96629.47
2023-05-08T21:52:52.096Z,96633.31
2023-05-08T21:55:25.230Z,96634.09
2023-05-08T21:57:57.979Z,96632.13
2023-05-08T22:00:31.089Z,96637.53
2023-05-08T22:03:03.894Z,96629.00
2023-05-08T22:05:37.066Z,96630.16
2023-05-08T22:08:11.327Z,96629.72
2023-05-08T22:10:45.140Z,96623.88
2023-05-08T22:13:17.964Z,96625.47
2023-05-08T22:15:50.925Z,96623.50
2023-05-08T22:18:23.635Z,96625.00
2023-05-08T22:20:56.302Z,96616.47
2023-05-08T22:23:30.827Z,96616.81
2023-05-08T22:26:03.612Z,96612.16
2023-05-08T22:28:36.299Z,96609.81
2023-05-08T22:31:09.084Z,96607.81
2023-05-08T22:33:41.850Z,96600.47
2023-05-08T22:36:14.670Z,96609.69
2023-05-08T22:38:48.936Z,96609.63
2023-05-08T22:41:22.387Z,96596.47
2023-05-08T22:43:55.241Z,96604.16
2023-05-08T22:46:28.114Z,96597.22
2023-05-08T22:49:01.301Z,96592.97
2023-05-08T22:51:34.126Z,96590.59
2023-05-08T22:54:08.542Z,96584.41
2023-05-08T22:56:41.554Z,96580.13
2023-05-08T22:59:14.189Z,96579.00
2023-05-08T23:01:47.473Z,96583.25
2023-05-08T23:04:20.503Z,96570.13
2023-05-08T23:06:53.597Z,96562.81
2023-05-08T23:09:28.176Z,96563.59
2023-05-08T23:12:01.281Z,96561.66
2023-05-08T23:14:34.196Z,96560.09
2023-05-08T23:17:07.224Z,96556.63
2023-05-08T23:19:39.943Z,96546.13
2023-05-08T23:22:13.998Z,96555.72
2023-05-08T23:24:48.508Z,96554.16
2023-05-08T23:27:22.856Z,96547.91
2023-05-08T23:29:55.699Z,96541.34
2023-05-08T23:32:28.808Z,96540.13
2023-05-08T23:35:01.715Z,96539.31
2023-05-08T23:37:34.948Z,96533.47
2023-05-08T23:40:11.326Z,96527.66
2023-05-08T23:42:44.537Z,96526.09
2023-05-08T23:45:17.535Z,96516.00
2023-05-08T23:47:50.551Z,96517.16
2023-05-08T23:50:23.895Z,96523.28
2023-05-08T23:52:56.890Z,96530.94
2023-05-08T23:55:31.702Z,96527.78
2023-05-08T23:58:05.078Z,96524.56
